Time;durP1;ratioP1;P1;durP2;ratioP2;P2;SDS_P1;SDS_P2;PMS_P1;PMS_P2;Temp;Humidity;BMP_temperature;BMP_pressure;BME280_temperature;BME280_humidity;BME280_pressure;Samples;Min_cycle;Max_cycle;Signal;HPM_P1;HPM_P2
2022/03/26 00:01:45;;;;;;;40.83;23.43;;;;;;;5.46;72.95;103021.38;5028849;28;20131;-81
2022/03/26 00:04:11;;;;;;;37.07;22.20;;;;;;;5.40;73.30;103011.13;5028975;28;20120;-79
2022/03/26 00:06:38;;;;;;;33.80;21.33;;;;;;;5.37;73.48;103032.88;5030318;28;20047;-85
2022/03/26 00:09:04;;;;;;;32.67;20.63;;;;;;;5.32;73.63;103024.34;5020074;28;20045;-84
2022/03/26 00:11:29;;;;;;;36.90;22.03;;;;;;;5.19;73.26;103014.56;5029018;28;20124;-79
2022/03/26 00:13:56;;;;;;;38.40;21.77;;;;;;;5.24;73.29;103022.25;5029472;28;20061;-84
2022/03/26 00:16:21;;;;;;;37.50;23.10;;;;;;;5.36;73.29;103048.16;5028399;28;20127;-85
2022/03/26 00:18:47;;;;;;;39.87;22.67;;;;;;;5.14;73.46;103006.03;5029522;28;20076;-81
2022/03/26 00:21:12;;;;;;;36.47;21.73;;;;;;;5.10;73.08;103001.00;5029113;28;20063;-79
2022/03/26 00:23:38;;;;;;;41.17;22.80;;;;;;;5.11;73.65;103003.56;5028770;28;20049;-81
2022/03/26 00:26:03;;;;;;;40.77;22.77;;;;;;;5.06;73.18;103006.63;5020525;28;20076;-86
2022/03/26 00:28:29;;;;;;;39.43;23.73;;;;;;;5.13;73.52;103015.06;5029197;28;20099;-82
2022/03/26 00:30:54;;;;;;;41.50;23.03;;;;;;;5.08;73.43;103011.88;5028253;28;20124;-84
2022/03/26 00:33:20;;;;;;;40.40;23.67;;;;;;;5.05;73.71;103006.75;5028815;28;20041;-82
2022/03/26 00:35:46;;;;;;;39.23;23.20;;;;;;;4.93;74.32;103002.34;5026660;28;20195;-88
2022/03/26 00:38:12;;;;;;;37.47;22.40;;;;;;;4.90;74.78;103016.88;5010254;28;20041;-82
2022/03/26 00:40:37;;;;;;;34.03;21.47;;;;;;;5.00;74.81;103014.31;5029048;28;20053;-84
2022/03/26 00:43:04;;;;;;;37.23;22.53;;;;;;;4.93;75.67;103018.47;5029250;28;20192;-81
2022/03/26 00:45:29;;;;;;;39.83;23.27;;;;;;;4.80;75.42;102997.97;5010158;28;20496;-81
2022/03/26 00:47:59;;;;;;;38.47;23.50;;;;;;;4.84;74.28;103006.59;5029832;28;20044;-80
2022/03/26 00:50:25;;;;;;;39.07;23.33;;;;;;;4.86;75.11;103012.72;5019305;28;20045;-84
2022/03/26 00:52:51;;;;;;;39.07;22.77;;;;;;;4.81;74.59;103002.31;5028903;28;20051;-84
2022/03/26 00:55:16;;;;;;;41.30;24.63;;;;;;;4.84;74.47;103015.53;5029212;28;20481;-82
2022/03/26 00:57:42;;;;;;;36.63;22.80;;;;;;;4.71;75.24;103004.88;5030536;28;20056;-83
2022/03/26 01:00:08;;;;;;;37.67;22.87;;;;;;;4.67;75.74;102998.03;5028423;28;20137;-79
2022/03/26 01:02:34;;;;;;;39.80;23.07;;;;;;;4.66;75.83;103001.69;5029982;28;20153;-78
2022/03/26 01:05:00;;;;;;;34.10;21.70;;;;;;;4.80;76.85;103018.56;5029572;28;20041;-78
2022/03/26 01:07:26;;;;;;;43.73;23.27;;;;;;;4.56;76.67;102990.81;5014689;28;20049;-82
2022/03/26 01:09:53;;;;;;;35.87;22.33;;;;;;;4.52;76.37;102993.88;5010968;28;20046;-84
2022/03/26 01:12:18;;;;;;;38.87;22.60;;;;;;;4.59;76.04;103005.00;5028457;28;20071;-78
2022/03/26 01:14:44;;;;;;;37.93;21.63;;;;;;;4.59;76.83;103011.22;5027704;28;20196;-78
2022/03/26 01:17:09;;;;;;;37.63;22.43;;;;;;;4.47;76.60;102988.84;5028901;28;20049;-79
2022/03/26 01:19:35;;;;;;;36.80;22.20;;;;;;;4.48;77.02;103008.50;5028526;28;20144;-79
2022/03/26 01:22:00;;;;;;;37.33;21.13;;;;;;;4.38;77.29;103000.31;5010043;28;20049;-82
2022/03/26 01:24:26;;;;;;;41.27;21.50;;;;;;;4.31;78.06;103007.09;5011689;28;20092;-80
2022/03/26 01:26:51;;;;;;;34.50;21.37;;;;;;;4.22;78.02;102997.94;5029194;28;20092;-77
2022/03/26 01:29:17;;;;;;;36.13;21.30;;;;;;;4.29;78.74;103017.13;5028996;28;20501;-79
2022/03/26 01:31:42;;;;;;;37.53;20.73;;;;;;;4.31;78.80;103024.09;5028220;28;20053;-77
2022/03/26 01:34:08;;;;;;;37.30;22.07;;;;;;;4.22;78.53;103025.63;5028107;28;20065;-81
2022/03/26 01:36:33;;;;;;;39.73;23.03;;;;;;;4.16;78.43;103012.69;5027721;28;20050;-80
2022/03/26 01:38:59;;;;;;;37.87;22.63;;;;;;;4.29;78.36;103038.59;5027988;28;20037;-85
2022/03/26 01:41:25;;;;;;;40.07;23.90;;;;;;;4.15;78.88;103013.66;5027626;28;20045;-83
2022/03/26 01:43:50;;;;;;;41.53;24.07;;;;;;;4.30;79.52;103043.00;5027726;28;20397;-82
2022/03/26 01:46:15;;;;;;;40.50;22.73;;;;;;;4.09;79.18;103003.38;5027718;28;20114;-82
2022/03/26 01:48:41;;;;;;;37.87;21.63;;;;;;;3.96;78.76;103006.13;5027170;28;20048;-80
2022/03/26 01:51:16;;;;;;;36.97;22.10;;;;;;;3.91;78.79;102994.88;5029271;28;20106;-83
2022/03/26 01:53:59;;;;;;;40.27;22.03;;;;;;;4.02;79.04;103018.22;5032694;28;20128;-84
2022/03/26 01:56:25;;;;;;;38.10;22.67;;;;;;;3.99;79.05;103013.94;5031330;28;20046;-82
2022/03/26 01:58:50;;;;;;;37.93;22.23;;;;;;;4.01;79.20;103017.38;5031921;28;20107;-80
2022/03/26 02:01:16;;;;;;;37.87;22.60;;;;;;;4.00;78.99;103012.13;5016872;28;20196;-81
2022/03/26 02:03:41;;;;;;;41.37;23.73;;;;;;;4.03;78.81;103006.53;5031404;28;20423;-83
2022/03/26 02:06:07;;;;;;;40.60;24.50;;;;;;;3.89;79.08;102989.66;5031794;28;20120;-83
2022/03/26 02:08:32;;;;;;;43.40;25.07;;;;;;;4.05;79.31;103018.88;5032100;28;20037;-82
2022/03/26 02:11:02;;;;;;;38.03;24.13;;;;;;;3.93;79.94;103005.50;5032079;28;20481;-82
2022/03/26 02:13:48;;;;;;;41.27;24.70;;;;;;;3.98;80.01;103009.53;5031018;28;20178;-80
2022/03/26 02:16:14;;;;;;;39.23;23.70;;;;;;;3.87;79.68;103007.66;5032320;28;20041;-81
2022/03/26 02:18:40;;;;;;;42.60;23.70;;;;;;;3.97;79.87;103023.06;5012803;28;20075;-80
2022/03/26 02:21:05;;;;;;;39.13;23.00;;;;;;;3.81;79.66;102994.72;5031300;28;20131;-79
2022/03/26 02:23:30;;;;;;;39.13;23.50;;;;;;;3.89;79.47;103013.78;5031372;28;20140;-79
2022/03/26 02:25:56;;;;;;;41.93;23.57;;;;;;;3.80;79.80;103001.06;5013403;28;20098;-78
2022/03/26 02:28:22;;;;;;;40.40;24.23;;;;;;;3.87;79.92;103018.38;5031539;28;20062;-78
2022/03/26 02:30:48;;;;;;;43.13;24.77;;;;;;;3.89;80.16;103027.19;5031240;28;20500;-81
2022/03/26 02:33:13;;;;;;;39.67;24.60;;;;;;;3.87;80.37;103007.66;5030527;28;20055;-81
2022/03/26 02:35:38;;;;;;;38.77;23.23;;;;;;;3.76;80.41;102998.72;5030686;28;20057;-84
2022/03/26 02:38:04;;;;;;;40.63;23.40;;;;;;;3.85;79.99;103014.97;5030673;28;20098;-82
2022/03/26 02:40:29;;;;;;;40.23;23.10;;;;;;;3.71;80.31;103001.72;5021231;28;20556;-84
2022/03/26 02:42:55;;;;;;;40.50;23.77;;;;;;;3.68;80.52;102988.56;5030784;28;20073;-84
2022/03/26 02:45:20;;;;;;;42.10;24.57;;;;;;;3.79;81.21;103004.69;5012858;28;20084;-83
2022/03/26 02:47:48;;;;;;;41.57;24.47;;;;;;;3.78;81.15;103007.50;5031446;28;20500;-82
2022/03/26 02:50:14;;;;;;;40.47;23.53;;;;;;;3.72;81.26;103006.97;5031231;28;20041;-84
2022/03/26 02:52:39;;;;;;;39.27;22.87;;;;;;;3.84;81.51;103024.00;5031370;28;20512;-78
2022/03/26 02:55:08;;;;;;;37.50;21.70;;;;;;;3.63;80.70;102990.72;5031449;28;20059;-78
2022/03/26 02:57:33;;;;;;;41.83;24.20;;;;;;;3.59;81.62;102984.75;5013670;28;20045;-80
2022/03/26 02:59:59;;;;;;;39.57;22.67;;;;;;;3.59;81.25;102989.22;5030023;28;20127;-84
2022/03/26 03:02:24;;;;;;;40.10;22.37;;;;;;;3.67;81.13;103000.25;5021770;28;20056;-79
2022/03/26 03:04:50;;;;;;;37.43;22.30;;;;;;;3.58;80.56;102984.84;5031111;28;20056;-80
2022/03/26 03:07:15;;;;;;;39.73;22.00;;;;;;;3.77;80.69;103025.41;5030602;28;20056;-78
2022/03/26 03:09:40;;;;;;;39.70;22.70;;;;;;;3.52;80.53;102978.97;5031893;28;20041;-78
2022/03/26 03:12:07;;;;;;;39.07;22.10;;;;;;;3.52;80.84;102984.34;5030348;28;20132;-78
2022/03/26 03:14:32;;;;;;;37.60;22.40;;;;;;;3.52;81.37;103000.41;5031402;28;20077;-82
2022/03/26 03:16:57;;;;;;;39.80;21.30;;;;;;;3.48;81.66;103003.41;5030990;28;20210;-82
2022/03/26 03:19:23;;;;;;;39.13;22.00;;;;;;;3.38;82.04;103009.44;5011866;28;20640;-82
2022/03/26 03:21:48;;;;;;;33.30;21.00;;;;;;;3.34;82.17;103005.28;5015940;28;20110;-81
2022/03/26 03:24:14;;;;;;;38.57;22.10;;;;;;;3.25;82.56;102997.03;5031006;28;20630;-82
2022/03/26 03:26:39;;;;;;;35.67;21.20;;;;;;;3.34;82.28;103013.31;5030892;28;20041;-82
2022/03/26 03:29:04;;;;;;;38.53;21.73;;;;;;;3.19;82.38;102988.47;5030447;28;20052;-81
2022/03/26 03:31:30;;;;;;;36.60;20.17;;;;;;;3.23;82.56;103005.19;5011294;28;20146;-81
2022/03/26 03:33:56;;;;;;;33.93;19.80;;;;;;;3.15;82.32;103003.06;5031177;28;20520;-83
2022/03/26 03:36:22;;;;;;;34.57;20.50;;;;;;;3.18;82.12;103004.66;5012157;28;20484;-84
2022/03/26 03:38:47;;;;;;;37.10;20.83;;;;;;;3.11;82.22;103000.72;5031649;28;20098;-85
2022/03/26 03:41:13;;;;;;;39.30;22.17;;;;;;;3.15;82.15;103007.56;5030228;28;20068;-85
2022/03/26 03:43:38;;;;;;;37.73;20.80;;;;;;;3.23;82.35;103017.75;5030795;28;20030;-86
2022/03/26 03:46:03;;;;;;;38.33;22.13;;;;;;;3.08;82.34;103001.78;5030452;28;20048;-81
2022/03/26 03:48:29;;;;;;;41.23;22.93;;;;;;;3.25;82.70;103015.81;5031176;28;20104;-87
2022/03/26 03:50:54;;;;;;;37.60;22.03;;;;;;;3.19;82.61;103004.56;5030102;28;20873;-82
2022/03/26 03:53:20;;;;;;;36.87;20.93;;;;;;;3.33;82.24;103032.19;5026064;28;20041;-81
2022/03/26 03:55:45;;;;;;;39.17;22.50;;;;;;;3.23;82.23;103021.28;5030858;28;20112;-83
2022/03/26 03:58:10;;;;;;;36.20;21.23;;;;;;;3.05;82.46;103004.69;4994500;28;20332;-83
2022/03/26 04:00:36;;;;;;;40.03;21.60;;;;;;;3.09;82.13;103008.00;5015082;28;20049;-81
2022/03/26 04:03:01;;;;;;;36.80;21.77;;;;;;;3.04;81.74;103009.19;5029655;28;20397;-80
2022/03/26 04:05:27;;;;;;;37.80;22.47;;;;;;;3.06;81.89;103010.91;5029571;28;20041;-82
2022/03/26 04:07:52;;;;;;;38.50;22.50;;;;;;;3.20;81.97;103043.78;5031307;28;20053;-82
2022/03/26 04:10:18;;;;;;;41.93;22.83;;;;;;;3.01;82.53;103000.53;5013892;28;20042;-83
2022/03/26 04:12:44;;;;;;;41.67;24.50;;;;;;;2.97;82.88;103015.09;5027195;28;20129;-83
2022/03/26 04:15:11;;;;;;;40.23;23.23;;;;;;;2.97;83.64;103015.09;5029210;28;20461;-78
2022/03/26 04:17:36;;;;;;;41.83;22.23;;;;;;;2.87;83.45;103005.03;5011173;28;20511;-83
2022/03/26 04:20:06;;;;;;;36.50;21.50;;;;;;;2.89;82.85;103017.47;5010713;28;20053;-81
2022/03/26 04:22:31;;;;;;;36.20;21.23;;;;;;;2.85;82.52;103017.66;5029641;28;20618;-81
2022/03/26 04:24:57;;;;;;;36.77;21.10;;;;;;;2.85;82.97;103017.66;5011061;28;20502;-83
2022/03/26 04:27:22;;;;;;;36.20;21.60;;;;;;;2.70;82.56;103008.88;5025786;28;20036;-84
2022/03/26 04:29:48;;;;;;;38.00;21.40;;;;;;;2.93;82.66;103045.75;4996253;28;20041;-81
2022/03/26 04:32:13;;;;;;;38.03;22.57;;;;;;;2.77;83.06;103017.34;5010757;28;20052;-82
2022/03/26 04:34:39;;;;;;;39.47;22.40;;;;;;;2.77;83.47;103017.34;5028630;28;20058;-81
2022/03/26 04:37:08;;;;;;;38.80;22.50;;;;;;;2.94;83.73;103047.44;5030450;28;20044;-78
2022/03/26 04:39:34;;;;;;;38.37;22.20;;;;;;;2.57;83.66;103001.81;5029199;28;20044;-80
2022/03/26 04:41:59;;;;;;;38.73;21.80;;;;;;;2.57;84.14;103005.38;5029150;28;20067;-79
2022/03/26 04:44:25;;;;;;;39.30;22.03;;;;;;;2.64;84.17;103013.81;5028385;28;20065;-78
2022/03/26 04:46:50;;;;;;;37.53;21.70;;;;;;;2.57;83.82;103004.47;5024895;28;20053;-77
2022/03/26 04:49:15;;;;;;;38.13;20.53;;;;;;;2.58;83.92;103012.41;5028984;28;20381;-77
2022/03/26 04:51:41;;;;;;;38.27;21.27;;;;;;;2.58;83.91;103019.59;5024767;28;20058;-81
2022/03/26 04:54:06;;;;;;;34.30;21.10;;;;;;;2.44;83.84;103002.66;5028767;28;20171;-81
2022/03/26 04:56:32;;;;;;;31.83;19.93;;;;;;;2.62;83.56;103042.50;5028133;28;20079;-77
2022/03/26 04:58:57;;;;;;;35.07;19.73;;;;;;;2.39;83.65;103015.47;5030268;28;20122;-80
2022/03/26 05:01:23;;;;;;;38.10;21.07;;;;;;;2.37;83.71;103014.75;5028293;28;20053;-77
2022/03/26 05:03:49;;;;;;;36.47;20.77;;;;;;;2.38;83.85;103031.66;5024636;28;20050;-78
2022/03/26 05:06:14;;;;;;;35.83;20.33;;;;;;;2.45;84.71;103038.28;5011218;28;20049;-84
2022/03/26 05:08:40;;;;;;;35.70;20.50;;;;;;;2.28;84.39;103028.75;5029771;28;20604;-83
2022/03/26 05:11:05;;;;;;;40.23;20.97;;;;;;;2.19;84.38;103014.19;5010466;28;20384;-85
2022/03/26 05:13:31;;;;;;;35.00;19.50;;;;;;;2.09;84.02;103018.41;5028511;28;20041;-82
2022/03/26 05:15:57;;;;;;;37.30;20.83;;;;;;;2.04;84.33;103013.38;5003292;28;20049;-82
2022/03/26 05:18:22;;;;;;;38.60;21.60;;;;;;;2.12;84.36;103024.44;5028299;28;20288;-82
2022/03/26 05:20:47;;;;;;;34.57;20.17;;;;;;;2.06;84.75;103026.66;5028857;28;20056;-81
2022/03/26 05:23:13;;;;;;;37.23;20.37;;;;;;;2.10;84.71;103037.03;5014386;28;20128;-83
2022/03/26 05:25:38;;;;;;;36.20;20.10;;;;;;;1.91;84.95;103021.34;5018517;28;20056;-82
2022/03/26 05:28:04;;;;;;;35.90;20.90;;;;;;;1.92;85.02;103014.19;5027926;28;20508;-83
2022/03/26 05:30:29;;;;;;;36.87;20.93;;;;;;;1.98;84.92;103037.84;5028573;28;20049;-82
2022/03/26 05:32:55;;;;;;;36.67;21.20;;;;;;;2.01;84.96;103043.00;5032371;28;20445;-85
2022/03/26 05:35:21;;;;;;;38.13;22.23;;;;;;;1.89;86.01;103031.31;5013329;28;20516;-84
2022/03/26 05:37:48;;;;;;;40.00;23.23;;;;;;;1.94;86.43;103036.34;5028649;28;20076;-80
2022/03/26 05:40:16;;;;;;;37.63;21.73;;;;;;;1.94;86.02;103049.69;5015030;28;20287;-83
2022/03/26 05:42:43;;;;;;;34.70;21.57;;;;;;;1.89;85.60;103047.34;5033823;28;20415;-77
2022/03/26 05:45:09;;;;;;;43.20;22.47;;;;;;;1.88;86.25;103047.41;5031715;28;20300;-81
2022/03/26 05:47:35;;;;;;;43.77;23.80;;;;;;;2.01;86.71;103051.00;5028434;28;20292;-79
2022/03/26 05:50:02;;;;;;;42.70;23.13;;;;;;;1.93;87.02;103048.84;5032178;28;21058;-83
2022/03/26 05:52:28;;;;;;;42.23;24.47;;;;;;;1.90;86.86;103040.16;5028007;28;20648;-84
2022/03/26 05:54:53;;;;;;;40.03;23.80;;;;;;;2.18;87.09;103077.50;5029650;28;20291;-84
2022/03/26 05:57:19;;;;;;;41.03;23.53;;;;;;;2.02;87.19;103045.56;5032674;28;20049;-83
2022/03/26 05:59:45;;;;;;;44.83;24.17;;;;;;;2.26;87.44;103079.66;5014512;28;20041;-83
2022/03/26 06:02:13;;;;;;;44.37;24.70;;;;;;;2.14;87.20;103065.28;5031621;28;20045;-79
2022/03/26 06:04:39;;;;;;;49.77;25.40;;;;;;;2.10;87.02;103047.72;5031400;28;20455;-78
2022/03/26 06:07:05;;;;;;;48.23;26.43;;;;;;;2.16;87.48;103052.69;5030912;28;20299;-78
2022/03/26 06:09:30;;;;;;;44.80;24.93;;;;;;;2.27;87.18;103053.78;5013191;28;20306;-79
2022/03/26 06:11:56;;;;;;;45.53;25.27;;;;;;;2.31;87.18;103061.50;5012896;28;20554;-78
2022/03/26 06:14:22;;;;;;;50.53;26.20;;;;;;;2.48;87.74;103068.38;5010275;28;20053;-79
2022/03/26 06:16:47;;;;;;;46.37;26.27;;;;;;;2.59;88.01;103073.00;5031247;28;20077;-82
2022/03/26 06:19:13;;;;;;;47.10;26.03;;;;;;;2.61;88.14;103067.53;5034869;28;20041;-77
2022/03/26 06:21:39;;;;;;;48.50;27.07;;;;;;;2.64;88.56;103059.34;5069952;28;20044;-77
2022/03/26 06:24:05;;;;;;;48.03;26.80;;;;;;;2.87;88.72;103079.16;5046798;28;20303;-84
2022/03/26 06:26:30;;;;;;;47.33;27.17;;;;;;;2.94;88.38;103075.09;5035545;28;20060;-83
2022/03/26 06:28:56;;;;;;;45.70;26.33;;;;;;;3.05;87.57;103087.72;5033686;28;20037;-80
2022/03/26 06:31:22;;;;;;;44.27;27.57;;;;;;;3.18;87.41;103083.22;5034127;28;20610;-78
2022/03/26 06:33:47;;;;;;;53.33;28.37;;;;;;;3.34;87.31;103090.19;5034534;28;20064;-80
2022/03/26 06:36:16;;;;;;;46.63;27.20;;;;;;;3.37;87.44;103072.06;5013895;28;20803;-82
2022/03/26 06:38:44;;;;;;;51.37;28.47;;;;;;;3.50;87.21;103077.38;5033800;28;20618;-80
2022/03/26 06:41:12;;;;;;;47.47;27.17;;;;;;;3.58;87.44;103074.16;5033667;28;20499;-80
2022/03/26 06:43:39;;;;;;;52.67;28.73;;;;;;;3.92;87.04;103119.13;5033555;28;20290;-80
2022/03/26 06:46:04;;;;;;;55.40;30.77;;;;;;;3.83;87.01;103062.50;5034434;28;20127;-78
2022/03/26 06:48:31;;;;;;;56.07;30.43;;;;;;;4.08;86.50;103083.97;5033215;28;20480;-81
2022/03/26 06:50:56;;;;;;;52.20;29.77;;;;;;;4.44;85.85;103119.78;5034943;28;20135;-82
2022/03/26 06:53:22;;;;;;;48.40;28.20;;;;;;;4.53;84.38;103114.56;5033236;28;20053;-83
2022/03/26 06:55:47;;;;;;;52.17;29.43;;;;;;;4.64;84.04;103096.81;5017386;28;20064;-77
2022/03/26 06:58:13;;;;;;;47.60;28.97;;;;;;;4.76;83.52;103098.53;5049242;28;20037;-77
2022/03/26 07:00:38;;;;;;;52.53;29.27;;;;;;;4.85;82.82;103087.06;5063587;28;20442;-78
2022/03/26 07:03:03;;;;;;;50.73;30.13;;;;;;;4.98;82.53;103083.44;5057072;28;20032;-77
2022/03/26 07:05:29;;;;;;;51.80;29.43;;;;;;;5.37;82.32;103121.59;5049013;28;20033;-77
2022/03/26 07:07:54;;;;;;;50.57;29.87;;;;;;;5.39;81.71;103100.81;5049794;28;20177;-77
2022/03/26 07:10:20;;;;;;;52.13;30.03;;;;;;;5.46;81.04;103085.06;5042145;28;20038;-84
2022/03/26 07:12:46;;;;;;;50.03;29.83;;;;;;;5.70;80.38;103084.94;5033294;28;20171;-84
2022/03/26 07:15:12;;;;;;;49.63;29.73;;;;;;;5.89;79.36;103092.34;5030565;28;20044;-80
2022/03/26 07:17:44;;;;;;;48.73;29.77;;;;;;;6.22;79.46;103114.81;5032708;28;20041;-78
2022/03/26 07:20:10;;;;;;;52.40;29.70;;;;;;;6.31;78.35;103102.41;5033106;28;20387;-78
2022/03/26 07:22:35;;;;;;;49.50;28.97;;;;;;;6.50;78.47;103097.19;5032817;28;20083;-82
2022/03/26 07:25:04;;;;;;;49.90;28.97;;;;;;;6.75;77.77;103106.72;5032838;28;20117;-83
2022/03/26 07:27:32;;;;;;;44.97;28.67;;;;;;;6.85;76.44;103096.00;5031717;28;20052;-83
2022/03/26 07:29:57;;;;;;;47.37;28.00;;;;;;;7.18;76.10;103112.09;5013656;28;20179;-81
2022/03/26 07:32:23;;;;;;;46.60;28.13;;;;;;;7.26;75.15;103091.59;5032500;28;20056;-78
2022/03/26 07:34:48;;;;;;;49.50;28.90;;;;;;;7.60;73.83;103118.28;5032633;28;20037;-80
2022/03/26 07:37:14;;;;;;;49.90;28.40;;;;;;;7.77;73.88;103114.06;5014881;28;20057;-78
2022/03/26 07:39:39;;;;;;;45.73;27.63;;;;;;;7.99;73.49;103112.13;5013806;28;20036;-78
2022/03/26 07:42:05;;;;;;;42.87;26.50;;;;;;;8.19;71.89;103112.16;5032832;28;20110;-78
2022/03/26 07:44:30;;;;;;;45.47;26.60;;;;;;;8.41;70.84;103122.69;5024608;28;20048;-87
2022/03/26 07:46:56;;;;;;;46.00;26.03;;;;;;;8.59;70.76;103113.91;5032717;28;20423;-84
2022/03/26 07:49:21;;;;;;;45.77;25.47;;;;;;;8.79;69.44;103109.34;5032610;28;20095;-84
2022/03/26 07:51:46;;;;;;;44.73;25.77;;;;;;;9.06;69.80;103119.41;5032241;28;20103;-84
2022/03/26 07:54:12;;;;;;;43.30;25.27;;;;;;;9.24;66.57;103118.66;5030996;28;20048;-87
2022/03/26 07:56:37;;;;;;;42.33;24.73;;;;;;;9.47;67.02;103143.50;5014681;28;20147;-79
2022/03/26 07:59:03;;;;;;;43.27;23.87;;;;;;;9.74;66.85;103141.81;5032098;28;20041;-78
2022/03/26 08:01:28;;;;;;;40.13;23.83;;;;;;;9.79;65.31;103123.25;5032205;28;20056;-79
2022/03/26 08:03:54;;;;;;;42.37;24.10;;;;;;;10.07;64.76;103117.81;5031792;28;20043;-79
2022/03/26 08:06:24;;;;;;;38.37;22.47;;;;;;;10.31;63.43;103128.06;5031106;28;20539;-87
2022/03/26 08:08:49;;;;;;;38.13;22.57;;;;;;;10.52;63.69;103107.97;5031756;28;20115;-84
2022/03/26 08:11:15;;;;;;;39.47;21.60;;;;;;;10.84;62.58;103112.81;5031420;28;20053;-79
2022/03/26 08:13:41;;;;;;;37.30;21.87;;;;;;;11.32;59.68;103145.84;5032456;28;20055;-82
2022/03/26 08:16:07;;;;;;;39.40;21.60;;;;;;;11.49;57.00;103125.94;5014052;28;20662;-85
2022/03/26 08:18:33;;;;;;;35.63;20.67;;;;;;;11.83;57.75;103129.63;5031655;28;20540;-82
2022/03/26 08:20:58;;;;;;;37.87;22.10;;;;;;;12.27;58.49;103137.59;5013913;28;20037;-83
2022/03/26 08:23:24;;;;;;;33.73;21.00;;;;;;;12.51;56.63;103130.47;5024251;28;20053;-82
2022/03/26 08:28:33;;;;;;;34.85;21.65;;;;;;;13.32;53.08;103141.47;5032479;28;20138;-83
2022/03/26 08:30:59;;;;;;;36.00;21.27;;;;;;;13.76;52.47;103148.34;5015741;28;20042;-85
2022/03/26 08:33:24;;;;;;;34.53;20.10;;;;;;;14.21;51.04;103151.34;5031398;28;20678;-89
2022/03/26 08:35:49;;;;;;;36.03;19.40;;;;;;;14.67;49.05;103174.09;5032773;28;20069;-84
2022/03/26 08:38:15;;;;;;;35.53;21.33;;;;;;;14.89;48.63;103160.63;5030859;28;20099;-87
2022/03/26 08:40:41;;;;;;;33.63;20.17;;;;;;;15.14;46.73;103157.66;5032348;28;20032;-84
2022/03/26 08:43:07;;;;;;;35.70;20.10;;;;;;;15.46;47.57;103150.13;5031921;28;20052;-87
2022/03/26 08:45:32;;;;;;;36.03;20.20;;;;;;;15.89;45.06;103165.88;5030234;28;20292;-82
2022/03/26 08:47:58;;;;;;;31.07;19.00;;;;;;;16.15;45.29;103168.09;5032777;28;20481;-81
2022/03/26 08:50:24;;;;;;;33.83;19.37;;;;;;;16.38;45.32;103148.78;5036623;28;20084;-81
2022/03/26 08:52:50;;;;;;;32.80;18.43;;;;;;;16.75;43.21;103176.06;5016365;28;20048;-83
2022/03/26 08:55:17;;;;;;;32.33;19.13;;;;;;;17.07;42.84;103177.44;5021795;28;20076;-88
2022/03/26 08:57:44;;;;;;;32.67;18.97;;;;;;;17.25;42.72;103168.72;5017593;28;20615;-83
2022/03/26 09:00:11;;;;;;;28.33;18.77;;;;;;;17.52;41.23;103160.66;5034167;28;21569;-81
2022/03/26 09:02:37;;;;;;;32.07;18.93;;;;;;;17.83;40.58;103165.69;5016055;28;20040;-85
2022/03/26 09:05:06;;;;;;;29.30;18.63;;;;;;;17.89;39.75;103153.03;5033706;28;20577;-84
2022/03/26 09:07:32;;;;;;;31.50;17.73;;;;;;;18.21;39.90;103169.88;5032827;28;20139;-83
2022/03/26 09:09:57;;;;;;;30.50;17.40;;;;;;;18.44;40.21;103164.00;5019532;28;20440;-86
2022/03/26 09:12:23;;;;;;;30.52;17.88;;;;;;;18.58;40.22;103164.88;5033831;28;20033;-81
2022/03/26 09:14:51;;;;;;;26.95;16.80;;;;;;;18.78;38.68;103164.03;5036635;28;20053;-81
2022/03/26 09:17:17;;;;;;;30.98;17.65;;;;;;;19.28;39.32;103180.09;5040295;28;20037;-85
2022/03/26 09:19:42;;;;;;;27.95;16.88;;;;;;;19.01;37.89;103172.75;5036284;28;20090;-86
2022/03/26 09:22:08;;;;;;;30.38;17.77;;;;;;;19.23;38.06;103172.50;5031291;28;20084;-86
2022/03/26 09:24:33;;;;;;;28.63;17.42;;;;;;;19.34;37.79;103158.09;5040554;28;20508;-87
2022/03/26 09:26:59;;;;;;;31.58;18.88;;;;;;;18.89;37.25;103160.72;5042964;28;20041;-86
2022/03/26 09:29:27;;;;;;;29.35;18.58;;;;;;;18.98;38.02;103156.66;5009660;28;20036;-82
2022/03/26 09:31:52;;;;;;;30.08;19.20;;;;;;;18.95;37.97;103170.00;5040529;28;20068;-83
2022/03/26 09:34:18;;;;;;;29.05;17.73;;;;;;;19.21;37.98;103164.44;5017758;28;20049;-85
2022/03/26 09:36:46;;;;;;;31.90;19.80;;;;;;;19.60;37.04;103161.00;5036405;28;20083;-85
2022/03/26 09:39:11;;;;;;;30.90;19.15;;;;;;;19.83;36.46;103171.53;5039035;28;20404;-83
2022/03/26 09:41:37;;;;;;;31.83;18.73;;;;;;;20.00;36.69;103186.47;5038596;28;20064;-82
2022/03/26 09:44:03;;;;;;;28.77;18.00;;;;;;;20.04;35.75;103154.69;5023908;28;20424;-86
2022/03/26 09:46:29;;;;;;;27.90;18.20;;;;;;;20.34;35.91;103159.63;5038967;28;20045;-82
2022/03/26 09:48:54;;;;;;;26.63;16.60;;;;;;;20.29;35.44;103153.94;5043125;28;20098;-86
2022/03/26 09:51:23;;;;;;;26.10;16.42;;;;;;;20.66;35.73;103184.41;5040680;28;20033;-85
2022/03/26 09:53:50;;;;;;;26.38;16.95;;;;;;;21.05;35.89;103182.44;5031862;28;20124;-81
2022/03/26 09:56:16;;;;;;;29.08;16.95;;;;;;;21.28;34.33;103171.81;5030446;28;20366;-83
2022/03/26 09:58:42;;;;;;;29.38;16.13;;;;;;;21.42;34.11;103173.38;5029643;28;20102;-80
2022/03/26 10:01:07;;;;;;;25.67;15.15;;;;;;;20.97;32.54;103157.06;5030949;28;20488;-79
2022/03/26 10:03:35;;;;;;;27.77;15.90;;;;;;;21.14;32.92;103168.38;5012748;28;20049;-81
2022/03/26 10:06:07;;;;;;;25.75;14.15;;;;;;;20.79;33.65;103160.59;5030533;28;20170;-85
2022/03/26 10:08:37;;;;;;;26.48;14.50;;;;;;;21.01;33.05;103177.56;5010882;28;20049;-83
2022/03/26 10:11:03;;;;;;;25.10;13.95;;;;;;;20.41;32.05;103178.84;5032434;28;20129;-77
2022/03/26 10:13:36;;;;;;;23.75;14.10;;;;;;;20.67;34.74;103169.56;5038207;28;20214;-77
2022/03/26 10:16:07;;;;;;;25.10;14.20;;;;;;;20.76;33.40;103164.66;5069244;28;20447;-77
2022/03/26 10:18:42;;;;;;;26.05;14.10;;;;;;;20.88;34.71;103170.28;5055269;28;20110;-76
2022/03/26 10:21:11;;;;;;;28.98;14.32;;;;;;;21.08;33.53;103168.19;5049588;28;20037;-79
2022/03/26 10:23:38;;;;;;;26.35;14.90;;;;;;;21.26;31.76;103172.06;5035286;28;20124;-80
2022/03/26 10:26:12;;;;;;;25.60;13.82;;;;;;;21.44;32.71;103175.91;5036509;28;20037;-79
2022/03/26 10:28:42;;;;;;;25.35;14.45;;;;;;;21.50;31.79;103174.97;5036129;28;20087;-79
2022/03/26 10:37:29;;;;;;;29.27;15.68;;;;;;;21.34;33.64;103160.72;5056172;28;20035;-78
2022/03/26 10:39:54;;;;;;;27.27;15.88;;;;;;;21.65;33.45;103167.22;5043510;28;20117;-79
2022/03/26 10:42:30;;;;;;;27.80;15.75;;;;;;;21.63;33.34;103157.47;5043881;28;20048;-82
2022/03/26 10:44:59;;;;;;;27.35;15.30;;;;;;;21.56;33.12;103152.03;5048061;28;20045;-80
2022/03/26 10:47:28;;;;;;;26.70;15.65;;;;;;;21.44;32.83;103156.59;5034727;28;20082;-81
2022/03/26 10:49:56;;;;;;;28.42;16.95;;;;;;;21.31;33.74;103149.31;5055031;28;20044;-81
2022/03/26 10:52:21;;;;;;;27.77;16.75;;;;;;;21.35;33.30;103148.63;5064509;28;20376;-82
2022/03/26 10:54:48;;;;;;;29.50;17.33;;;;;;;21.34;33.57;103148.88;5021386;28;20206;-80
2022/03/26 10:57:13;;;;;;;27.63;16.50;;;;;;;21.35;34.23;103148.63;5033515;28;20052;-83
2022/03/26 10:59:39;;;;;;;26.05;17.17;;;;;;;21.15;35.25;103142.50;5033729;28;20552;-86
2022/03/26 11:02:04;;;;;;;25.50;16.63;;;;;;;21.19;34.52;103157.50;5032290;28;20048;-84
2022/03/26 11:04:30;;;;;;;26.65;17.27;;;;;;;21.24;35.19;103149.38;5004682;28;20593;-84
2022/03/26 11:06:56;;;;;;;25.42;16.25;;;;;;;21.31;34.46;103152.91;5014680;28;20664;-87
2022/03/26 11:09:22;;;;;;;26.48;16.70;;;;;;;21.66;35.22;103145.97;5032914;28;20043;-83
2022/03/26 11:11:51;;;;;;;27.55;16.65;;;;;;;21.75;34.56;103139.91;5015219;28;20037;-82
2022/03/26 11:14:24;;;;;;;26.35;16.48;;;;;;;21.80;34.06;103144.75;5029740;28;20053;-84
2022/03/26 11:17:08;;;;;;;24.15;16.27;;;;;;;21.98;34.65;103143.88;5029383;28;20091;-86
2022/03/26 11:19:36;;;;;;;;;;;;;;;22.57;34.68;103138.53;5031236;28;20041;-85